Time;durP1;ratioP1;P1;durP2;ratioP2;P2;SDS_P1;SDS_P2;PMS_P1;PMS_P2;Temp;Humidity;BMP_temperature;BMP_pressure;BME280_temperature;BME280_humidity;BME280_pressure;Samples;Min_cycle;Max_cycle;Signal;HPM_P1;HPM_P2
2022/06/11 00:00:42;;;;;;;5.30;3.35;;;;;;;;;;2057156;28;20745;-57
2022/06/11 00:01:44;;;;;;;5.72;3.10;;;;;;;;;;2057097;28;20163;-57
2022/06/11 00:02:44;;;;;;;3.92;3.28;;;;;;;;;;2057531;28;20253;-55
2022/06/11 00:03:46;;;;;;;5.22;3.13;;;;;;;;;;2057334;28;20170;-58
2022/06/11 00:04:46;;;;;;;4.82;3.00;;;;;;;;;;2055895;28;20241;-58
2022/06/11 00:05:46;;;;;;;3.90;3.13;;;;;;;;;;2056664;28;20174;-58
2022/06/11 00:06:48;;;;;;;4.35;3.10;;;;;;;;;;2057654;28;20602;-57
2022/06/11 00:07:49;;;;;;;5.15;3.45;;;;;;;;;;2057632;28;20170;-59
2022/06/11 00:08:51;;;;;;;5.97;3.53;;;;;;;;;;2058157;28;20175;-59
2022/06/11 00:09:52;;;;;;;4.88;3.20;;;;;;;;;;2057541;28;20166;-56
2022/06/11 00:10:53;;;;;;;3.45;3.13;;;;;;;;;;2057761;28;20174;-58
2022/06/11 00:11:53;;;;;;;3.80;3.15;;;;;;;;;;2057795;28;20163;-57
2022/06/11 00:12:54;;;;;;;3.15;2.90;;;;;;;;;;2057218;28;20726;-59
2022/06/11 00:13:54;;;;;;;3.25;3.00;;;;;;;;;;2056848;28;20236;-57
2022/06/11 00:14:55;;;;;;;5.45;3.10;;;;;;;;;;2057541;28;20205;-58
2022/06/11 00:15:55;;;;;;;5.10;3.17;;;;;;;;;;2057513;28;20179;-58
2022/06/11 00:16:56;;;;;;;4.43;3.40;;;;;;;;;;2057936;28;20266;-59
2022/06/11 00:17:57;;;;;;;4.90;3.67;;;;;;;;;;2057713;28;20222;-59
2022/06/11 00:18:58;;;;;;;4.15;3.35;;;;;;;;;;2057912;28;20817;-59
2022/06/11 00:19:59;;;;;;;5.28;3.40;;;;;;;;;;2057699;28;20234;-57
2022/06/11 00:20:59;;;;;;;3.90;3.10;;;;;;;;;;2058726;28;20253;-57
2022/06/11 00:22:00;;;;;;;5.63;3.53;;;;;;;;;;2059097;28;20177;-58
2022/06/11 00:23:00;;;;;;;5.10;3.50;;;;;;;;;;2059525;28;20174;-60
2022/06/11 00:24:01;;;;;;;5.50;3.85;;;;;;;;;;2058654;28;20201;-59
2022/06/11 00:25:01;;;;;;;3.50;3.30;;;;;;;;;;2058903;28;20204;-57
2022/06/11 00:26:02;;;;;;;5.38;3.70;;;;;;;;;;2059345;28;20643;-57
2022/06/11 00:27:03;;;;;;;4.10;3.25;;;;;;;;;;2059062;28;20163;-57
2022/06/11 00:28:04;;;;;;;5.95;3.63;;;;;;;;;;2058386;28;20546;-57
2022/06/11 00:29:04;;;;;;;3.72;3.42;;;;;;;;;;2058331;28;20177;-58
2022/06/11 00:30:06;;;;;;;5.32;3.70;;;;;;;;;;2066322;28;20186;-57
2022/06/11 00:31:06;;;;;;;5.18;3.60;;;;;;;;;;2066315;28;20252;-55
2022/06/11 00:32:07;;;;;;;3.50;3.20;;;;;;;;;;2059226;28;20174;-57
2022/06/11 00:33:08;;;;;;;4.53;3.60;;;;;;;;;;2059124;28;20229;-56
2022/06/11 00:34:08;;;;;;;3.47;3.20;;;;;;;;;;2059019;28;20174;-58
2022/06/11 00:35:10;;;;;;;3.80;3.40;;;;;;;;;;2059054;28;20205;-57
2022/06/11 00:36:11;;;;;;;5.03;3.20;;;;;;;;;;2059147;28;20295;-59
2022/06/11 00:37:13;;;;;;;5.15;3.50;;;;;;;;;;2059738;28;20178;-59
2022/06/11 00:38:14;;;;;;;5.97;3.85;;;;;;;;;;2059338;28;20177;-59
2022/06/11 00:39:16;;;;;;;6.03;3.60;;;;;;;;;;2059321;28;20201;-56
2022/06/11 00:40:18;;;;;;;3.88;3.55;;;;;;;;;;2059488;28;20174;-56
2022/06/11 00:41:20;;;;;;;9.35;3.28;;;;;;;;;;2059047;28;20175;-57
2022/06/11 00:42:23;;;;;;;3.88;3.50;;;;;;;;;;2059093;28;20202;-58
2022/06/11 00:43:24;;;;;;;3.67;3.38;;;;;;;;;;2058975;28;20643;-57
2022/06/11 00:44:25;;;;;;;4.50;3.53;;;;;;;;;;2059326;28;20686;-58
2022/06/11 00:45:29;;;;;;;4.43;3.30;;;;;;;;;;2059934;28;20240;-56
2022/06/11 00:46:35;;;;;;;4.30;3.30;;;;;;;;;;2060112;28;20635;-57
2022/06/11 00:47:35;;;;;;;5.25;3.53;;;;;;;;;;2060125;28;20774;-57
2022/06/11 00:48:38;;;;;;;5.35;3.90;;;;;;;;;;2060466;28;20229;-59
2022/06/11 00:49:40;;;;;;;4.47;3.70;;;;;;;;;;2060812;28;20173;-56
2022/06/11 00:50:43;;;;;;;7.55;3.70;;;;;;;;;;2060143;28;20181;-56
2022/06/11 00:51:44;;;;;;;4.45;3.47;;;;;;;;;;2060219;28;20492;-56
2022/06/11 00:52:44;;;;;;;4.18;3.78;;;;;;;;;;2060318;28;20261;-56
2022/06/11 00:53:47;;;;;;;5.80;3.70;;;;;;;;;;2060524;28;20174;-56
2022/06/11 00:54:52;;;;;;;4.07;3.60;;;;;;;;;;2058905;28;20190;-57
2022/06/11 00:55:53;;;;;;;4.60;3.75;;;;;;;;;;2059719;28;20520;-57
2022/06/11 00:56:55;;;;;;;3.90;3.45;;;;;;;;;;2059148;28;20201;-55
2022/06/11 00:58:07;;;;;;;4.95;3.50;;;;;;;;;;2059057;28;20209;-57
2022/06/11 00:59:10;;;;;;;5.90;3.78;;;;;;;;;;2059240;28;20186;-59
2022/06/11 01:00:15;;;;;;;5.50;3.50;;;;;;;;;;2059626;28;20213;-58
2022/06/11 01:01:17;;;;;;;5.80;4.07;;;;;;;;;;2060141;28;20170;-59
2022/06/11 01:02:17;;;;;;;5.50;3.78;;;;;;;;;;2059808;28;20574;-57
2022/06/11 01:03:21;;;;;;;4.65;3.65;;;;;;;;;;2060108;28;20162;-57
2022/06/11 01:04:33;;;;;;;5.85;4.05;;;;;;;;;;2059484;28;20178;-56
2022/06/11 01:05:35;;;;;;;6.65;3.70;;;;;;;;;;2060055;28;20727;-58
2022/06/11 01:06:36;;;;;;;5.05;3.53;;;;;;;;;;2060865;28;20644;-58
2022/06/11 01:07:45;;;;;;;5.50;4.38;;;;;;;;;;2060586;28;20186;-58
2022/06/11 01:08:52;;;;;;;6.05;4.00;;;;;;;;;;2069507;28;20170;-59
2022/06/11 01:10:05;;;;;;;4.00;3.60;;;;;;;;;;2068894;28;20170;-57
2022/06/11 01:11:11;;;;;;;4.25;3.83;;;;;;;;;;2062790;28;20254;-58
2022/06/11 01:12:13;;;;;;;4.43;4.00;;;;;;;;;;2062127;28;20710;-59
2022/06/11 01:13:31;;;;;;;6.50;3.85;;;;;;;;;;2062609;28;20186;-58
2022/06/11 01:14:34;;;;;;;5.32;3.65;;;;;;;;;;2060953;28;20190;-58
2022/06/11 01:15:37;;;;;;;7.63;4.43;;;;;;;;;;2060871;28;20727;-59
2022/06/11 01:16:40;;;;;;;4.95;3.53;;;;;;;;;;2060495;28;20694;-56
2022/06/11 01:17:53;;;;;;;5.35;3.80;;;;;;;;;;2060071;28;20174;-58
2022/06/11 01:19:02;;;;;;;5.10;3.80;;;;;;;;;;2059853;28;20542;-59
2022/06/11 01:20:03;;;;;;;7.55;4.15;;;;;;;;;;2059423;28;20169;-57
2022/06/11 01:21:09;;;;;;;7.35;3.90;;;;;;;;;;2059112;28;20182;-57
2022/06/11 01:22:26;;;;;;;5.82;4.00;;;;;;;;;;2058393;28;20193;-58
2022/06/11 01:23:38;;;;;;;5.00;4.03;;;;;;;;;;2059632;28;20208;-57
2022/06/11 01:24:41;;;;;;;9.73;4.03;;;;;;;;;;2058133;28;20214;-58
2022/06/11 01:25:57;;;;;;;5.22;4.05;;;;;;;;;;2057281;28;20202;-57
2022/06/11 01:27:13;;;;;;;5.63;3.90;;;;;;;;;;2059539;28;20260;-57
2022/06/11 01:28:13;;;;;;;6.82;4.43;;;;;;;;;;2059125;28;20173;-58
2022/06/11 01:29:26;;;;;;;4.18;3.75;;;;;;;;;;2059462;28;20212;-57
2022/06/11 01:30:32;;;;;;;7.13;4.00;;;;;;;;;;2059080;28;20237;-58
2022/06/11 01:31:37;;;;;;;6.00;3.55;;;;;;;;;;2058856;28;20205;-58
2022/06/11 01:32:41;;;;;;;6.10;4.07;;;;;;;;;;2058792;28;20159;-59
2022/06/11 01:33:56;;;;;;;5.38;3.85;;;;;;;;;;2059954;28;20178;-58
2022/06/11 01:35:17;;;;;;;4.35;3.95;;;;;;;;;;2058910;28;20182;-59
2022/06/11 01:36:23;;;;;;;6.88;3.92;;;;;;;;;;2058766;28;20163;-57
2022/06/11 01:37:29;;;;;;;5.63;4.05;;;;;;;;;;2058411;28;20176;-59
2022/06/11 01:38:32;;;;;;;6.03;4.10;;;;;;;;;;2058411;28;20651;-56
2022/06/11 01:39:43;;;;;;;5.18;4.10;;;;;;;;;;2058364;28;20162;-59
2022/06/11 01:40:46;;;;;;;5.45;4.15;;;;;;;;;;2057845;28;20678;-57
2022/06/11 01:41:50;;;;;;;4.18;3.70;;;;;;;;;;2057831;28;20550;-56
2022/06/11 01:42:56;;;;;;;4.85;4.30;;;;;;;;;;2058778;28;20170;-57
2022/06/11 01:44:01;;;;;;;6.68;4.15;;;;;;;;;;2057729;28;20747;-57
2022/06/11 01:45:05;;;;;;;6.05;3.58;;;;;;;;;;2058117;28;20201;-58
2022/06/11 01:46:17;;;;;;;5.10;4.00;;;;;;;;;;2058737;28;20185;-57
2022/06/11 01:47:17;;;;;;;3.97;3.60;;;;;;;;;;2058608;28;20659;-58
2022/06/11 01:48:20;;;;;;;4.45;3.85;;;;;;;;;;2058621;28;20158;-58
2022/06/11 01:49:20;;;;;;;4.40;4.00;;;;;;;;;;2058557;28;20260;-58
2022/06/11 01:50:22;;;;;;;4.57;3.80;;;;;;;;;;2058300;28;20594;-56
2022/06/11 01:51:35;;;;;;;7.28;4.43;;;;;;;;;;2058125;28;20170;-59
2022/06/11 01:52:44;;;;;;;4.57;4.18;;;;;;;;;;2057866;28;20182;-58
2022/06/11 01:53:44;;;;;;;6.82;4.18;;;;;;;;;;2057872;28;20174;-56
2022/06/11 01:54:54;;;;;;;5.05;3.72;;;;;;;;;;2057249;28;20222;-58
2022/06/11 01:56:12;;;;;;;4.05;3.53;;;;;;;;;;2057941;28;20584;-56
2022/06/11 01:57:31;;;;;;;6.85;3.80;;;;;;;;;;2058370;28;20189;-58
2022/06/11 01:58:43;;;;;;;4.90;4.40;;;;;;;;;;2058786;28;20178;-55
2022/06/11 01:59:46;;;;;;;5.35;4.07;;;;;;;;;;2059042;28;20158;-59
2022/06/11 02:00:52;;;;;;;6.82;5.32;;;;;;;;;;2058150;28;20179;-57
2022/06/11 02:01:55;;;;;;;6.07;4.03;;;;;;;;;;2058015;28;20580;-58
2022/06/11 02:03:03;;;;;;;8.43;4.25;;;;;;;;;;2057913;28;20165;-59
2022/06/11 02:04:14;;;;;;;4.22;3.80;;;;;;;;;;2057160;28;20650;-57
2022/06/11 02:05:20;;;;;;;5.18;4.30;;;;;;;;;;2057892;28;20150;-57
2022/06/11 02:06:47;;;;;;;6.40;4.07;;;;;;;;;;2057869;28;20726;-58
2022/06/11 02:07:53;;;;;;;4.72;3.95;;;;;;;;;;2042156;28;20255;-59
2022/06/11 02:09:16;;;;;;;6.32;4.20;;;;;;;;;;2058036;28;20167;-58
2022/06/11 02:10:26;;;;;;;5.03;4.55;;;;;;;;;;2057994;28;20178;-56
2022/06/11 02:11:35;;;;;;;5.47;4.15;;;;;;;;;;2057980;28;20655;-57
2022/06/11 02:12:43;;;;;;;5.95;4.25;;;;;;;;;;2050098;28;20185;-56
2022/06/11 02:13:54;;;;;;;6.30;4.20;;;;;;;;;;2049786;28;20174;-59
2022/06/11 02:15:17;;;;;;;5.97;4.57;;;;;;;;;;2049573;28;20203;-57
2022/06/11 02:16:21;;;;;;;7.68;4.57;;;;;;;;;;2051576;28;20270;-58
2022/06/11 02:17:26;;;;;;;5.18;4.05;;;;;;;;;;2049852;29;20185;-56
2022/06/11 02:18:27;;;;;;;7.28;4.82;;;;;;;;;;2050103;29;20171;-58
2022/06/11 02:19:31;;;;;;;5.13;4.15;;;;;;;;;;2050833;29;20182;-57
2022/06/11 02:20:37;;;;;;;5.70;4.75;;;;;;;;;;2050450;28;20182;-57
2022/06/11 02:21:40;;;;;;;4.85;4.40;;;;;;;;;;2050620;29;20159;-57
2022/06/11 02:22:43;;;;;;;5.18;4.63;;;;;;;;;;2050396;29;20330;-57
2022/06/11 02:23:47;;;;;;;5.90;4.15;;;;;;;;;;2050069;29;20247;-58
2022/06/11 02:24:50;;;;;;;5.15;4.40;;;;;;;;;;2066079;23;20197;-62
2022/06/11 02:25:53;;;;;;;9.48;5.32;;;;;;;;;;2078484;28;20165;-54
2022/06/11 02:26:56;;;;;;;6.43;4.60;;;;;;;;;;2080484;28;20168;-53
2022/06/11 02:27:58;;;;;;;8.70;4.68;;;;;;;;;;2082230;28;20184;-53
2022/06/11 02:28:59;;;;;;;5.60;4.80;;;;;;;;;;2081699;28;20625;-53
2022/06/11 02:30:00;;;;;;;6.07;4.68;;;;;;;;;;2080587;28;20653;-58
2022/06/11 02:31:02;;;;;;;10.40;5.25;;;;;;;;;;2080984;28;20172;-52
2022/06/11 02:32:05;;;;;;;6.82;5.07;;;;;;;;;;2081621;28;20164;-53
2022/06/11 02:33:08;;;;;;;5.38;4.88;;;;;;;;;;2081582;28;20256;-54
2022/06/11 02:34:09;;;;;;;5.78;4.68;;;;;;;;;;2079448;28;20585;-56
2022/06/11 02:35:11;;;;;;;6.32;5.20;;;;;;;;;;2081543;28;20204;-52
2022/06/11 02:36:12;;;;;;;5.63;5.18;;;;;;;;;;2079759;28;20600;-56
2022/06/11 02:37:41;;;;;;;7.85;5.28;;;;;;;;;;2081207;28;20291;-54
2022/06/11 02:38:42;;;;;;;6.85;4.78;;;;;;;;;;2068644;28;20274;-54
2022/06/11 02:39:42;;;;;;;5.95;5.20;;;;;;;;;;2081747;28;20168;-59
2022/06/11 02:40:44;;;;;;;6.55;5.10;;;;;;;;;;2081924;28;20172;-54
2022/06/11 02:41:46;;;;;;;7.05;5.20;;;;;;;;;;2081564;28;20255;-58
2022/06/11 02:42:46;;;;;;;5.75;5.20;;;;;;;;;;2072921;28;20299;-57
2022/06/11 02:43:47;;;;;;;6.05;5.35;;;;;;;;;;2071976;28;20169;-56
2022/06/11 02:44:48;;;;;;;5.80;5.25;;;;;;;;;;2072125;28;20209;-55
2022/06/11 02:45:48;;;;;;;6.90;5.53;;;;;;;;;;2073675;28;20161;-54
2022/06/11 02:46:48;;;;;;;7.10;5.70;;;;;;;;;;2073680;28;20157;-54
2022/06/11 02:47:49;;;;;;;6.43;5.82;;;;;;;;;;2073665;28;20231;-59
2022/06/11 02:48:51;;;;;;;8.90;5.07;;;;;;;;;;2073520;28;20197;-56
2022/06/11 02:49:52;;;;;;;6.28;5.43;;;;;;;;;;2076404;28;20179;-58
2022/06/11 02:50:53;;;;;;;7.03;5.80;;;;;;;;;;2081655;28;20196;-54
2022/06/11 02:51:55;;;;;;;5.95;5.20;;;;;;;;;;2081836;28;20176;-55
2022/06/11 02:52:55;;;;;;;9.77;5.82;;;;;;;;;;2079898;28;20255;-54
2022/06/11 02:53:56;;;;;;;5.75;4.93;;;;;;;;;;2081593;28;20548;-55
2022/06/11 02:54:56;;;;;;;6.90;5.72;;;;;;;;;;2081365;28;20589;-53
2022/06/11 02:55:57;;;;;;;8.68;5.90;;;;;;;;;;2081786;28;20164;-56
2022/06/11 02:56:58;;;;;;;5.90;5.30;;;;;;;;;;2081602;28;20211;-53
2022/06/11 02:57:58;;;;;;;6.75;5.22;;;;;;;;;;2081296;28;20215;-55
2022/06/11 02:58:59;;;;;;;7.20;5.53;;;;;;;;;;2079379;28;20221;-58
2022/06/11 02:59:59;;;;;;;8.48;5.93;;;;;;;;;;2072999;28;20251;-58
2022/06/11 03:00:59;;;;;;;8.95;6.00;;;;;;;;;;2072972;28;20283;-58
2022/06/11 03:02:00;;;;;;;9.43;6.85;;;;;;;;;;2073669;28;20633;-56
2022/06/11 03:03:01;;;;;;;10.32;6.70;;;;;;;;;;2071705;28;20181;-54
2022/06/11 03:04:01;;;;;;;13.48;6.60;;;;;;;;;;2072777;28;20260;-57
2022/06/11 03:05:02;;;;;;;6.65;6.05;;;;;;;;;;2073295;28;20192;-56
2022/06/11 03:06:02;;;;;;;10.18;6.10;;;;;;;;;;2073656;28;20157;-59
2022/06/11 03:07:03;;;;;;;8.43;6.22;;;;;;;;;;2073268;28;20708;-54
2022/06/11 03:08:04;;;;;;;7.72;6.53;;;;;;;;;;2073562;28;20209;-56
2022/06/11 03:09:05;;;;;;;8.38;6.45;;;;;;;;;;2073019;28;20169;-56
2022/06/11 03:10:05;;;;;;;12.05;6.90;;;;;;;;;;2072917;28;20181;-54
2022/06/11 03:11:05;;;;;;;7.20;6.38;;;;;;;;;;2073541;28;20168;-54
2022/06/11 03:12:06;;;;;;;8.90;6.47;;;;;;;;;;2073621;28;20176;-53
2022/06/11 03:13:07;;;;;;;10.35;6.32;;;;;;;;;;2073478;28;20173;-51
2022/06/11 03:14:07;;;;;;;7.20;6.50;;;;;;;;;;2072700;28;20169;-52
2022/06/11 03:15:08;;;;;;;8.45;6.72;;;;;;;;;;2073594;28;20197;-53
2022/06/11 03:16:08;;;;;;;7.38;6.68;;;;;;;;;;2073482;28;20172;-57
2022/06/11 03:17:10;;;;;;;10.02;7.28;;;;;;;;;;2073176;28;20665;-62
2022/06/11 03:18:10;;;;;;;9.32;7.18;;;;;;;;;;2072982;28;20200;-57
2022/06/11 03:19:11;;;;;;;8.48;6.78;;;;;;;;;;2073583;28;20188;-56
2022/06/11 03:20:13;;;;;;;8.45;7.05;;;;;;;;;;2073340;28;20207;-54
2022/06/11 03:21:13;;;;;;;11.95;6.78;;;;;;;;;;2073724;28;20243;-55
2022/06/11 03:22:15;;;;;;;6.82;6.18;;;;;;;;;;2073342;28;20205;-51
2022/06/11 03:23:16;;;;;;;8.80;6.22;;;;;;;;;;2073607;28;20164;-54
2022/06/11 03:24:17;;;;;;;8.98;7.10;;;;;;;;;;2072664;28;20252;-53
2022/06/11 03:25:17;;;;;;;8.80;6.68;;;;;;;;;;2073530;28;20574;-54
2022/06/11 03:26:18;;;;;;;9.80;6.88;;;;;;;;;;2073592;28;20168;-56
2022/06/11 03:27:18;;;;;;;13.30;7.63;;;;;;;;;;2073493;28;20176;-56
2022/06/11 03:28:21;;;;;;;10.48;6.97;;;;;;;;;;2073481;28;20179;-52
2022/06/11 03:29:22;;;;;;;7.47;6.68;;;;;;;;;;2073397;28;20212;-55
2022/06/11 03:30:22;;;;;;;12.88;7.43;;;;;;;;;;2073376;28;20268;-56
2022/06/11 03:31:22;;;;;;;9.23;7.60;;;;;;;;;;2073757;28;20188;-54
2022/06/11 03:32:23;;;;;;;8.05;7.05;;;;;;;;;;2073683;28;20181;-58
2022/06/11 03:33:26;;;;;;;8.65;7.82;;;;;;;;;;2076512;28;20255;-56
2022/06/11 03:34:27;;;;;;;13.40;7.40;;;;;;;;;;2072109;28;20192;-51
2022/06/11 03:35:27;;;;;;;7.60;6.85;;;;;;;;;;2073509;28;20677;-58
2022/06/11 03:36:28;;;;;;;9.00;8.02;;;;;;;;;;2072783;28;20208;-54
2022/06/11 03:37:28;;;;;;;8.02;7.22;;;;;;;;;;2072946;28;20169;-55
2022/06/11 03:38:29;;;;;;;9.25;7.32;;;;;;;;;;2073943;28;20251;-55
2022/06/11 03:39:29;;;;;;;8.13;7.30;;;;;;;;;;2073471;28;20234;-51
2022/06/11 03:40:30;;;;;;;10.25;7.20;;;;;;;;;;2073227;28;20184;-58
2022/06/11 03:41:30;;;;;;;8.98;7.55;;;;;;;;;;2073508;28;20165;-54
2022/06/11 03:42:30;;;;;;;10.18;7.55;;;;;;;;;;2073294;28;20218;-53
2022/06/11 03:43:31;;;;;;;9.70;7.55;;;;;;;;;;2073378;28;20165;-55
2022/06/11 03:44:31;;;;;;;8.90;7.45;;;;;;;;;;2072282;28;20173;-54
2022/06/11 03:45:32;;;;;;;8.43;7.47;;;;;;;;;;2073756;28;20201;-57
2022/06/11 03:46:32;;;;;;;14.75;7.85;;;;;;;;;;2073932;28;20181;-58
2022/06/11 03:47:33;;;;;;;10.00;7.82;;;;;;;;;;2074145;28;20695;-57
2022/06/11 03:48:35;;;;;;;11.23;8.05;;;;;;;;;;2074001;28;20212;-55
2022/06/11 03:49:36;;;;;;;10.80;7.90;;;;;;;;;;2074422;28;20173;-55
2022/06/11 03:50:37;;;;;;;10.25;7.88;;;;;;;;;;2081387;28;20161;-61
2022/06/11 03:51:37;;;;;;;9.57;7.78;;;;;;;;;;2081259;28;20255;-57
2022/06/11 03:52:38;;;;;;;10.80;8.48;;;;;;;;;;2081790;28;20222;-56
2022/06/11 03:53:41;;;;;;;12.20;7.97;;;;;;;;;;2079968;28;20232;-53
2022/06/11 03:54:41;;;;;;;11.45;8.00;;;;;;;;;;2080770;28;20168;-54
2022/06/11 03:55:42;;;;;;;8.10;7.38;;;;;;;;;;2082763;28;20172;-52
2022/06/11 03:56:45;;;;;;;9.95;8.25;;;;;;;;;;2074735;28;20276;-54
2022/06/11 03:57:45;;;;;;;10.80;7.25;;;;;;;;;;2082551;28;20160;-55
2022/06/11 03:58:47;;;;;;;9.60;7.82;;;;;;;;;;2082668;28;20238;-52
2022/06/11 03:59:47;;;;;;;12.27;8.00;;;;;;;;;;2082517;28;20890;-53
2022/06/11 04:02:07;;;;;;;8.40;7.53;;;;;;;;;;2068437;28;20183;-55
2022/06/11 04:03:12;;;;;;;10.27;7.70;;;;;;;;;;2069170;28;20187;-53
2022/06/11 04:04:13;;;;;;;11.50;7.97;;;;;;;;;;2073049;28;20181;-56
2022/06/11 04:05:14;;;;;;;11.50;8.63;;;;;;;;;;2074040;28;20190;-52
2022/06/11 04:06:16;;;;;;;12.30;8.40;;;;;;;;;;2069470;28;21727;-50
2022/06/11 04:07:16;;;;;;;13.32;8.77;;;;;;;;;;2071899;28;20710;-53
2022/06/11 04:08:17;;;;;;;9.68;8.25;;;;;;;;;;2068700;28;20176;-52
2022/06/11 04:09:23;;;;;;;9.55;7.88;;;;;;;;;;2070808;28;20544;-56
2022/06/11 04:10:24;;;;;;;9.90;7.85;;;;;;;;;;2070454;28;20185;-54
2022/06/11 04:11:24;;;;;;;11.30;8.20;;;;;;;;;;2069269;28;20189;-52
2022/06/11 04:12:25;;;;;;;9.68;8.30;;;;;;;;;;2070219;28;20177;-51
2022/06/11 04:13:26;;;;;;;8.77;7.97;;;;;;;;;;2070099;28;20181;-51
2022/06/11 04:14:27;;;;;;;11.98;8.43;;;;;;;;;;2069122;28;20169;-54
2022/06/11 04:15:27;;;;;;;9.90;7.57;;;;;;;;;;2070355;28;20197;-54
2022/06/11 04:16:36;;;;;;;8.63;7.82;;;;;;;;;;2070014;28;20184;-51
2022/06/11 04:17:36;;;;;;;9.57;8.30;;;;;;;;;;2071171;28;20179;-56
2022/06/11 04:18:38;;;;;;;9.52;8.43;;;;;;;;;;2062974;28;20221;-51
2022/06/11 04:19:41;;;;;;;10.10;8.07;;;;;;;;;;2065362;28;20178;-53
2022/06/11 04:20:41;;;;;;;9.68;8.70;;;;;;;;;;2070892;28;20174;-55
2022/06/11 04:21:42;;;;;;;8.85;7.95;;;;;;;;;;2069862;28;20169;-52
2022/06/11 04:22:42;;;;;;;10.98;8.20;;;;;;;;;;2069592;28;20193;-53
2022/06/11 04:23:44;;;;;;;10.48;8.35;;;;;;;;;;2070400;28;20186;-55
2022/06/11 04:24:44;;;;;;;8.45;7.53;;;;;;;;;;2068988;28;20169;-57
2022/06/11 04:25:45;;;;;;;8.80;7.28;;;;;;;;;;2070100;28;20161;-57
2022/06/11 04:26:46;;;;;;;10.95;7.93;;;;;;;;;;2070046;28;20181;-57
2022/06/11 04:27:46;;;;;;;9.57;8.30;;;;;;;;;;2069802;28;20161;-54
2022/06/11 04:28:47;;;;;;;9.23;8.20;;;;;;;;;;2070257;28;20177;-54
2022/06/11 04:29:49;;;;;;;8.65;7.75;;;;;;;;;;2069547;28;20172;-54
2022/06/11 04:30:50;;;;;;;9.35;8.05;;;;;;;;;;2068789;28;20178;-55
2022/06/11 04:31:51;;;;;;;9.25;8.00;;;;;;;;;;2069012;28;20254;-54
2022/06/11 04:32:51;;;;;;;12.02;8.57;;;;;;;;;;2070688;28;20181;-51
2022/06/11 04:33:52;;;;;;;10.55;8.45;;;;;;;;;;2069773;28;20273;-52
2022/06/11 04:34:52;;;;;;;12.60;8.35;;;;;;;;;;2070312;28;20934;-59
2022/06/11 04:35:53;;;;;;;9.80;8.80;;;;;;;;;;2068088;28;20824;-54
2022/06/11 04:36:53;;;;;;;9.07;8.10;;;;;;;;;;2071061;28;20205;-57
2022/06/11 04:37:54;;;;;;;10.18;8.88;;;;;;;;;;2066736;28;20174;-55
2022/06/11 04:38:54;;;;;;;10.75;8.45;;;;;;;;;;2078699;28;20203;-51
2022/06/11 04:39:56;;;;;;;10.57;8.95;;;;;;;;;;2076239;28;20177;-52
2022/06/11 04:40:56;;;;;;;11.50;9.05;;;;;;;;;;2070907;28;20188;-54
2022/06/11 04:41:57;;;;;;;11.52;8.40;;;;;;;;;;2071076;28;20200;-53
2022/06/11 04:42:57;;;;;;;9.40;8.43;;;;;;;;;;2071075;28;20219;-57
2022/06/11 04:43:57;;;;;;;11.32;7.97;;;;;;;;;;2071058;28;20165;-53
2022/06/11 04:44:58;;;;;;;13.70;9.25;;;;;;;;;;2071615;28;20716;-59
2022/06/11 04:45:58;;;;;;;9.95;8.95;;;;;;;;;;2069647;28;20174;-54
2022/06/11 04:46:58;;;;;;;10.25;8.57;;;;;;;;;;2071692;28;20220;-52
2022/06/11 04:47:59;;;;;;;9.73;8.63;;;;;;;;;;2070817;28;20623;-55
2022/06/11 04:48:59;;;;;;;8.88;8.05;;;;;;;;;;2072866;28;20180;-53
2022/06/11 04:50:00;;;;;;;8.85;7.97;;;;;;;;;;2070990;28;20176;-51
2022/06/11 04:51:01;;;;;;;9.15;8.30;;;;;;;;;;2070589;28;20233;-55
2022/06/11 04:52:02;;;;;;;10.25;7.43;;;;;;;;;;2071509;28;20260;-60
2022/06/11 04:53:03;;;;;;;11.77;7.72;;;;;;;;;;2070417;28;20181;-49
2022/06/11 04:54:03;;;;;;;8.73;7.95;;;;;;;;;;2070638;28;20723;-53
2022/06/11 04:55:04;;;;;;;9.85;7.70;;;;;;;;;;2071332;28;20193;-55
2022/06/11 04:56:05;;;;;;;9.80;7.43;;;;;;;;;;2070720;28;20659;-55
2022/06/11 04:57:05;;;;;;;9.77;7.47;;;;;;;;;;2070617;28;20173;-55
2022/06/11 04:58:05;;;;;;;7.85;6.78;;;;;;;;;;2073095;28;20746;-53
2022/06/11 04:59:06;;;;;;;10.07;7.13;;;;;;;;;;2075129;28;20169;-53
2022/06/11 05:00:08;;;;;;;8.88;7.97;;;;;;;;;;2074531;28;20646;-51
2022/06/11 05:01:08;;;;;;;8.60;7.78;;;;;;;;;;2071146;28;20271;-55
2022/06/11 05:02:09;;;;;;;7.50;6.60;;;;;;;;;;2073181;28;20162;-56
2022/06/11 05:03:09;;;;;;;9.13;7.82;;;;;;;;;;2070241;28;20630;-51
2022/06/11 05:04:12;;;;;;;10.65;7.63;;;;;;;;;;2072950;28;20205;-56
2022/06/11 05:05:13;;;;;;;9.25;7.72;;;;;;;;;;2071255;28;20259;-54
2022/06/11 05:06:15;;;;;;;8.43;7.25;;;;;;;;;;2070463;28;20638;-56
2022/06/11 05:07:15;;;;;;;9.43;7.30;;;;;;;;;;2073826;28;20219;-57
2022/06/11 05:08:16;;;;;;;11.80;7.18;;;;;;;;;;2075280;28;20231;-54
2022/06/11 05:09:17;;;;;;;8.32;6.70;;;;;;;;;;2075056;28;20167;-52
2022/06/11 05:10:19;;;;;;;7.90;7.13;;;;;;;;;;2072521;28;20177;-53
2022/06/11 05:11:19;;;;;;;8.30;7.15;;;;;;;;;;2066910;28;20650;-67
2022/06/11 05:12:20;;;;;;;7.15;6.32;;;;;;;;;;2066941;28;20260;-53
2022/06/11 05:13:20;;;;;;;8.48;7.65;;;;;;;;;;2068095;28;20199;-53
2022/06/11 05:14:22;;;;;;;8.65;7.65;;;;;;;;;;2070935;28;20204;-51
2022/06/11 05:15:22;;;;;;;9.65;7.18;;;;;;;;;;2074252;28;20732;-54
2022/06/11 05:16:22;;;;;;;7.70;6.55;;;;;;;;;;2073493;28;20180;-51
2022/06/11 05:17:23;;;;;;;12.20;7.28;;;;;;;;;;2068937;28;20192;-53
2022/06/11 05:18:24;;;;;;;10.35;7.80;;;;;;;;;;2071919;28;20177;-54
2022/06/11 05:19:26;;;;;;;8.07;7.00;;;;;;;;;;2075543;28;20196;-54
2022/06/11 05:20:26;;;;;;;7.68;6.88;;;;;;;;;;2073872;28;20177;-55
2022/06/11 05:21:26;;;;;;;8.00;7.30;;;;;;;;;;2074103;28;20215;-57
2022/06/11 05:22:27;;;;;;;7.80;7.00;;;;;;;;;;2069417;28;20706;-52
2022/06/11 05:23:27;;;;;;;8.05;7.15;;;;;;;;;;2074487;28;20547;-57
2022/06/11 05:24:29;;;;;;;10.43;7.38;;;;;;;;;;2076717;28;20185;-51
2022/06/11 05:25:30;;;;;;;10.73;7.50;;;;;;;;;;2075656;28;20216;-55
2022/06/11 05:26:33;;;;;;;10.07;7.68;;;;;;;;;;2077206;28;20697;-57
2022/06/11 05:27:34;;;;;;;8.13;7.22;;;;;;;;;;2078883;28;20225;-54
2022/06/11 05:28:35;;;;;;;9.07;7.75;;;;;;;;;;2078525;28;20177;-57
2022/06/11 05:29:48;;;;;;;7.68;6.88;;;;;;;;;;2074294;28;20177;-52
2022/06/11 05:30:48;;;;;;;8.85;7.35;;;;;;;;;;2076115;28;20161;-58
2022/06/11 05:31:49;;;;;;;7.93;6.88;;;;;;;;;;2077376;28;20688;-57
2022/06/11 05:32:49;;;;;;;8.63;7.88;;;;;;;;;;2077759;28;20257;-55
2022/06/11 05:33:50;;;;;;;8.00;7.30;;;;;;;;;;2075397;28;20169;-51
2022/06/11 05:34:51;;;;;;;7.72;6.47;;;;;;;;;;2077563;28;20289;-54
2022/06/11 05:35:51;;;;;;;6.50;5.80;;;;;;;;;;2075893;28;20195;-57
2022/06/11 05:36:52;;;;;;;7.25;6.13;;;;;;;;;;2079694;28;20726;-58
2022/06/11 05:37:53;;;;;;;8.65;5.80;;;;;;;;;;2075216;28;20221;-58
2022/06/11 05:38:53;;;;;;;6.88;6.18;;;;;;;;;;2080624;28;20252;-56
2022/06/11 05:39:54;;;;;;;11.85;6.72;;;;;;;;;;2077181;28;20184;-59
2022/06/11 05:40:55;;;;;;;7.05;4.88;;;;;;;;;;2083581;28;20167;-57
2022/06/11 05:41:55;;;;;;;9.82;5.15;;;;;;;;;;2084203;28;20218;-58
2022/06/11 05:42:56;;;;;;;8.60;5.63;;;;;;;;;;2081421;28;20204;-58
2022/06/11 05:43:56;;;;;;;6.72;5.18;;;;;;;;;;2074263;28;20177;-56
2022/06/11 05:44:57;;;;;;;8.13;5.22;;;;;;;;;;2074098;28;20192;-58
2022/06/11 05:46:08;;;;;;;5.78;5.30;;;;;;;;;;2074895;28;20169;-58
2022/06/11 05:47:10;;;;;;;6.10;4.65;;;;;;;;;;2074657;28;20176;-58
2022/06/11 05:48:11;;;;;;;6.88;5.07;;;;;;;;;;2071852;28;20255;-58
2022/06/11 05:49:15;;;;;;;5.85;4.18;;;;;;;;;;2068360;28;20190;-56
2022/06/11 05:50:19;;;;;;;5.28;4.00;;;;;;;;;;2073276;28;20173;-56
2022/06/11 05:51:23;;;;;;;5.88;4.22;;;;;;;;;;2071451;28;20173;-56
2022/06/11 05:52:25;;;;;;;4.50;4.05;;;;;;;;;;2069693;28;20181;-58
2022/06/11 05:53:27;;;;;;;4.32;3.65;;;;;;;;;;2073217;28;20195;-55
2022/06/11 05:54:29;;;;;;;6.03;3.47;;;;;;;;;;2073297;28;20185;-54
2022/06/11 05:55:32;;;;;;;3.85;3.55;;;;;;;;;;2074076;28;20185;-55
2022/06/11 05:56:32;;;;;;;4.38;3.33;;;;;;;;;;2071557;28;20185;-58
2022/06/11 05:57:33;;;;;;;4.82;3.38;;;;;;;;;;2074107;28;20192;-56
2022/06/11 05:58:38;;;;;;;3.60;3.30;;;;;;;;;;2074043;28;20193;-58
2022/06/11 05:59:42;;;;;;;5.65;3.53;;;;;;;;;;2074234;28;20561;-61
2022/06/11 06:00:42;;;;;;;4.38;3.35;;;;;;;;;;2073453;28;20907;-58
2022/06/11 06:01:43;;;;;;;3.35;3.03;;;;;;;;;;2073462;28;20188;-59
2022/06/11 06:02:44;;;;;;;4.03;3.38;;;;;;;;;;2074181;28;20200;-57
2022/06/11 06:03:44;;;;;;;4.95;3.35;;;;;;;;;;2073699;28;20181;-58
2022/06/11 06:04:45;;;;;;;5.57;3.30;;;;;;;;;;2073223;28;20177;-61
2022/06/11 06:05:45;;;;;;;5.63;3.58;;;;;;;;;;2073579;28;20670;-56
2022/06/11 06:06:46;;;;;;;3.50;3.03;;;;;;;;;;2073704;28;20205;-52
2022/06/11 06:07:46;;;;;;;4.68;3.40;;;;;;;;;;2073328;28;20244;-54
2022/06/11 06:08:47;;;;;;;4.25;3.05;;;;;;;;;;2073698;28;20630;-53
2022/06/11 06:09:47;;;;;;;3.60;3.13;;;;;;;;;;2074800;28;20235;-52
2022/06/11 06:10:48;;;;;;;3.22;2.90;;;;;;;;;;2075346;28;20231;-57
2022/06/11 06:11:48;;;;;;;3.60;3.28;;;;;;;;;;2075172;28;20189;-56
2022/06/11 06:12:48;;;;;;;7.13;3.33;;;;;;;;;;2075110;28;20208;-55
2022/06/11 06:13:49;;;;;;;3.83;2.92;;;;;;;;;;2073272;28;20201;-57
2022/06/11 06:14:50;;;;;;;3.38;2.65;;;;;;;;;;2072365;28;21603;-58
2022/06/11 06:15:51;;;;;;;4.30;2.85;;;;;;;;;;2070738;28;20235;-57